sensor_id;sensor_type;location;lat;lon;timestamp;P1;durP1;ratioP1;P2;durP2;ratioP2
7707;SDS011;3896;48.758;8.888;2024-02-26T00:01:38;3.07;;;2.60;;
7707;SDS011;3896;48.758;8.888;2024-02-26T00:04:04;6.20;;;4.27;;
7707;SDS011;3896;48.758;8.888;2024-02-26T00:06:30;4.00;;;3.00;;
7707;SDS011;3896;48.758;8.888;2024-02-26T00:08:56;4.27;;;3.13;;
7707;SDS011;3896;48.758;8.888;2024-02-26T00:11:21;9.60;;;5.17;;
7707;SDS011;3896;48.758;8.888;2024-02-26T00:13:47;6.87;;;4.83;;
7707;SDS011;3896;48.758;8.888;2024-02-26T00:16:13;7.33;;;4.60;;
7707;SDS011;3896;48.758;8.888;2024-02-26T00:18:38;3.60;;;2.73;;
7707;SDS011;3896;48.758;8.888;2024-02-26T00:21:04;2.63;;;2.27;;
7707;SDS011;3896;48.758;8.888;2024-02-26T00:23:29;2.20;;;2.00;;
7707;SDS011;3896;48.758;8.888;2024-02-26T00:25:55;2.13;;;1.93;;
7707;SDS011;3896;48.758;8.888;2024-02-26T00:28:21;3.80;;;2.30;;
7707;SDS011;3896;48.758;8.888;2024-02-26T00:30:46;1.77;;;1.63;;
7707;SDS011;3896;48.758;8.888;2024-02-26T00:33:12;1.63;;;1.50;;
7707;SDS011;3896;48.758;8.888;2024-02-26T00:35:40;1.63;;;1.53;;
7707;SDS011;3896;48.758;8.888;2024-02-26T00:38:06;1.33;;;1.33;;
7707;SDS011;3896;48.758;8.888;2024-02-26T00:40:31;2.80;;;1.87;;
7707;SDS011;3896;48.758;8.888;2024-02-26T00:42:57;2.50;;;2.30;;
7707;SDS011;3896;48.758;8.888;2024-02-26T00:45:22;6.40;;;4.37;;
7707;SDS011;3896;48.758;8.888;2024-02-26T00:47:48;4.53;;;4.00;;
7707;SDS011;3896;48.758;8.888;2024-02-26T00:50:14;6.00;;;4.33;;
7707;SDS011;3896;48.758;8.888;2024-02-26T00:52:39;6.07;;;4.00;;
7707;SDS011;3896;48.758;8.888;2024-02-26T00:55:05;4.43;;;3.80;;
7707;SDS011;3896;48.758;8.888;2024-02-26T00:57:31;4.70;;;3.47;;
7707;SDS011;3896;48.758;8.888;2024-02-26T00:59:57;2.40;;;2.20;;
7707;SDS011;3896;48.758;8.888;2024-02-26T01:02:24;1.80;;;1.70;;
7707;SDS011;3896;48.758;8.888;2024-02-26T01:04:49;1.50;;;1.40;;
7707;SDS011;3896;48.758;8.888;2024-02-26T01:07:15;2.20;;;1.60;;
7707;SDS011;3896;48.758;8.888;2024-02-26T01:09:40;2.07;;;1.53;;
7707;SDS011;3896;48.758;8.888;2024-02-26T01:12:07;4.90;;;3.20;;
7707;SDS011;3896;48.758;8.888;2024-02-26T01:14:33;4.20;;;2.90;;
7707;SDS011;3896;48.758;8.888;2024-02-26T01:16:58;5.00;;;3.40;;
7707;SDS011;3896;48.758;8.888;2024-02-26T01:19:24;6.17;;;3.43;;
7707;SDS011;3896;48.758;8.888;2024-02-26T01:21:49;6.47;;;4.23;;
7707;SDS011;3896;48.758;8.888;2024-02-26T01:24:15;5.40;;;3.40;;
7707;SDS011;3896;48.758;8.888;2024-02-26T01:26:40;3.63;;;2.23;;
7707;SDS011;3896;48.758;8.888;2024-02-26T01:29:06;2.03;;;1.93;;
7707;SDS011;3896;48.758;8.888;2024-02-26T01:31:31;2.23;;;1.80;;
7707;SDS011;3896;48.758;8.888;2024-02-26T01:33:57;2.10;;;1.90;;
7707;SDS011;3896;48.758;8.888;2024-02-26T01:36:22;2.80;;;1.90;;
7707;SDS011;3896;48.758;8.888;2024-02-26T01:38:48;3.23;;;2.10;;
7707;SDS011;3896;48.758;8.888;2024-02-26T01:41:14;2.53;;;2.33;;
7707;SDS011;3896;48.758;8.888;2024-02-26T01:43:39;2.63;;;2.20;;
7707;SDS011;3896;48.758;8.888;2024-02-26T01:46:05;2.83;;;1.90;;
7707;SDS011;3896;48.758;8.888;2024-02-26T01:48:35;2.37;;;1.90;;
7707;SDS011;3896;48.758;8.888;2024-02-26T01:51:02;1.77;;;1.63;;
7707;SDS011;3896;48.758;8.888;2024-02-26T01:53:28;1.93;;;1.67;;
7707;SDS011;3896;48.758;8.888;2024-02-26T01:55:53;2.20;;;2.00;;
7707;SDS011;3896;48.758;8.888;2024-02-26T01:58:19;2.20;;;1.90;;
7707;SDS011;3896;48.758;8.888;2024-02-26T02:00:45;2.43;;;1.70;;
7707;SDS011;3896;48.758;8.888;2024-02-26T02:03:11;1.60;;;1.50;;
7707;SDS011;3896;48.758;8.888;2024-02-26T02:05:37;1.73;;;1.23;;
7707;SDS011;3896;48.758;8.888;2024-02-26T02:08:07;1.27;;;1.17;;
7707;SDS011;3896;48.758;8.888;2024-02-26T02:10:35;1.30;;;1.20;;
7707;SDS011;3896;48.758;8.888;2024-02-26T02:13:01;1.37;;;1.27;;
7707;SDS011;3896;48.758;8.888;2024-02-26T02:15:26;1.90;;;1.60;;
7707;SDS011;3896;48.758;8.888;2024-02-26T02:17:52;0.90;;;0.90;;
7707;SDS011;3896;48.758;8.888;2024-02-26T02:20:18;0.90;;;0.90;;
7707;SDS011;3896;48.758;8.888;2024-02-26T02:22:44;0.77;;;0.77;;
7707;SDS011;3896;48.758;8.888;2024-02-26T02:25:10;1.07;;;1.07;;
7707;SDS011;3896;48.758;8.888;2024-02-26T02:27:36;0.77;;;0.77;;
7707;SDS011;3896;48.758;8.888;2024-02-26T02:30:01;0.77;;;0.77;;
7707;SDS011;3896;48.758;8.888;2024-02-26T02:32:28;0.90;;;0.57;;
7707;SDS011;3896;48.758;8.888;2024-02-26T02:34:54;0.93;;;0.50;;
7707;SDS011;3896;48.758;8.888;2024-02-26T02:37:21;0.93;;;0.70;;
7707;SDS011;3896;48.758;8.888;2024-02-26T02:39:46;0.80;;;0.80;;
7707;SDS011;3896;48.758;8.888;2024-02-26T02:42:12;0.60;;;0.60;;
7707;SDS011;3896;48.758;8.888;2024-02-26T02:57:35;0.50;;;0.50;;
7707;SDS011;3896;48.758;8.888;2024-02-26T03:00:06;1.33;;;0.60;;
7707;SDS011;3896;48.758;8.888;2024-02-26T03:02:32;0.60;;;0.60;;
7707;SDS011;3896;48.758;8.888;2024-02-26T03:05:00;0.60;;;0.60;;
7707;SDS011;3896;48.758;8.888;2024-02-26T03:07:27;0.73;;;0.73;;
7707;SDS011;3896;48.758;8.888;2024-02-26T03:12:26;0.57;;;0.57;;
7707;SDS011;3896;48.758;8.888;2024-02-26T03:14:52;0.50;;;0.50;;
7707;SDS011;3896;48.758;8.888;2024-02-26T03:17:19;0.50;;;0.50;;
7707;SDS011;3896;48.758;8.888;2024-02-26T03:19:45;0.50;;;0.50;;
7707;SDS011;3896;48.758;8.888;2024-02-26T03:22:12;0.70;;;0.70;;
7707;SDS011;3896;48.758;8.888;2024-02-26T03:24:40;0.60;;;0.60;;
7707;SDS011;3896;48.758;8.888;2024-02-26T03:27:06;0.50;;;0.50;;
7707;SDS011;3896;48.758;8.888;2024-02-26T03:29:34;0.43;;;0.43;;
7707;SDS011;3896;48.758;8.888;2024-02-26T03:32:00;0.70;;;0.70;;
7707;SDS011;3896;48.758;8.888;2024-02-26T03:34:26;0.50;;;0.50;;
7707;SDS011;3896;48.758;8.888;2024-02-26T03:36:52;0.50;;;0.50;;
7707;SDS011;3896;48.758;8.888;2024-02-26T03:39:17;0.50;;;0.50;;
7707;SDS011;3896;48.758;8.888;2024-02-26T03:41:43;0.50;;;0.50;;
7707;SDS011;3896;48.758;8.888;2024-02-26T03:44:08;0.50;;;0.50;;
7707;SDS011;3896;48.758;8.888;2024-02-26T03:46:34;0.50;;;0.50;;
7707;SDS011;3896;48.758;8.888;2024-02-26T03:49:00;0.80;;;0.50;;
7707;SDS011;3896;48.758;8.888;2024-02-26T03:51:25;0.37;;;0.37;;
7707;SDS011;3896;48.758;8.888;2024-02-26T03:53:53;0.50;;;0.50;;
7707;SDS011;3896;48.758;8.888;2024-02-26T03:56:18;0.60;;;0.60;;
7707;SDS011;3896;48.758;8.888;2024-02-26T03:58:45;0.47;;;0.47;;
7707;SDS011;3896;48.758;8.888;2024-02-26T04:01:11;0.83;;;0.83;;
7707;SDS011;3896;48.758;8.888;2024-02-26T04:03:36;0.40;;;0.40;;
7707;SDS011;3896;48.758;8.888;2024-02-26T04:06:02;0.70;;;0.70;;
7707;SDS011;3896;48.758;8.888;2024-02-26T04:08:28;0.50;;;0.50;;
7707;SDS011;3896;48.758;8.888;2024-02-26T04:10:53;0.63;;;0.53;;
7707;SDS011;3896;48.758;8.888;2024-02-26T04:13:19;0.40;;;0.40;;
7707;SDS011;3896;48.758;8.888;2024-02-26T04:15:44;3.83;;;0.50;;
7707;SDS011;3896;48.758;8.888;2024-02-26T04:18:11;0.40;;;0.40;;
7707;SDS011;3896;48.758;8.888;2024-02-26T04:20:37;1.40;;;0.50;;
7707;SDS011;3896;48.758;8.888;2024-02-26T04:23:03;0.50;;;0.50;;
7707;SDS011;3896;48.758;8.888;2024-02-26T04:25:29;0.60;;;0.60;;
7707;SDS011;3896;48.758;8.888;2024-02-26T04:27:54;0.30;;;0.30;;
7707;SDS011;3896;48.758;8.888;2024-02-26T04:30:20;0.80;;;0.77;;
7707;SDS011;3896;48.758;8.888;2024-02-26T04:32:46;0.60;;;0.60;;
7707;SDS011;3896;48.758;8.888;2024-02-26T04:35:11;0.63;;;0.50;;
7707;SDS011;3896;48.758;8.888;2024-02-26T04:37:37;0.60;;;0.60;;
7707;SDS011;3896;48.758;8.888;2024-02-26T04:40:03;1.90;;;0.60;;
7707;SDS011;3896;48.758;8.888;2024-02-26T04:42:29;0.53;;;0.53;;
7707;SDS011;3896;48.758;8.888;2024-02-26T04:44:54;0.53;;;0.50;;
7707;SDS011;3896;48.758;8.888;2024-02-26T04:47:20;0.57;;;0.57;;
7707;SDS011;3896;48.758;8.888;2024-02-26T04:49:47;0.50;;;0.50;;
7707;SDS011;3896;48.758;8.888;2024-02-26T04:52:14;0.70;;;0.70;;
7707;SDS011;3896;48.758;8.888;2024-02-26T04:54:39;1.93;;;0.97;;
7707;SDS011;3896;48.758;8.888;2024-02-26T04:57:05;0.60;;;0.60;;
7707;SDS011;3896;48.758;8.888;2024-02-26T04:59:30;0.80;;;0.77;;
7707;SDS011;3896;48.758;8.888;2024-02-26T05:01:56;0.60;;;0.60;;
7707;SDS011;3896;48.758;8.888;2024-02-26T05:04:22;1.00;;;0.90;;
7707;SDS011;3896;48.758;8.888;2024-02-26T05:06:47;0.67;;;0.67;;
7707;SDS011;3896;48.758;8.888;2024-02-26T05:09:13;0.63;;;0.63;;
7707;SDS011;3896;48.758;8.888;2024-02-26T05:11:38;0.63;;;0.60;;
7707;SDS011;3896;48.758;8.888;2024-02-26T05:14:04;0.50;;;0.50;;
7707;SDS011;3896;48.758;8.888;2024-02-26T05:16:29;0.60;;;0.60;;
7707;SDS011;3896;48.758;8.888;2024-02-26T05:18:56;0.50;;;0.50;;
7707;SDS011;3896;48.758;8.888;2024-02-26T05:21:22;0.80;;;0.80;;
7707;SDS011;3896;48.758;8.888;2024-02-26T05:23:47;0.80;;;0.80;;
7707;SDS011;3896;48.758;8.888;2024-02-26T05:26:19;1.70;;;0.87;;
7707;SDS011;3896;48.758;8.888;2024-02-26T05:28:47;0.90;;;0.90;;
7707;SDS011;3896;48.758;8.888;2024-02-26T05:31:14;0.97;;;0.97;;
7707;SDS011;3896;48.758;8.888;2024-02-26T05:33:40;1.90;;;0.87;;
7707;SDS011;3896;48.758;8.888;2024-02-26T05:36:05;0.77;;;0.77;;
7707;SDS011;3896;48.758;8.888;2024-02-26T05:38:31;0.80;;;0.80;;
7707;SDS011;3896;48.758;8.888;2024-02-26T05:40:57;0.70;;;0.70;;
7707;SDS011;3896;48.758;8.888;2024-02-26T05:43:24;1.10;;;1.00;;
7707;SDS011;3896;48.758;8.888;2024-02-26T05:45:50;0.90;;;0.90;;
7707;SDS011;3896;48.758;8.888;2024-02-26T05:48:16;0.80;;;0.80;;
7707;SDS011;3896;48.758;8.888;2024-02-26T05:50:41;0.50;;;0.50;;
7707;SDS011;3896;48.758;8.888;2024-02-26T05:53:07;0.60;;;0.60;;
7707;SDS011;3896;48.758;8.888;2024-02-26T05:55:32;0.90;;;0.90;;
7707;SDS011;3896;48.758;8.888;2024-02-26T05:57:58;4.03;;;1.03;;
7707;SDS011;3896;48.758;8.888;2024-02-26T06:00:23;0.50;;;0.50;;
7707;SDS011;3896;48.758;8.888;2024-02-26T06:02:49;0.90;;;0.90;;
7707;SDS011;3896;48.758;8.888;2024-02-26T06:05:14;0.77;;;0.77;;
7707;SDS011;3896;48.758;8.888;2024-02-26T06:07:40;0.50;;;0.50;;
7707;SDS011;3896;48.758;8.888;2024-02-26T06:10:06;0.67;;;0.60;;
7707;SDS011;3896;48.758;8.888;2024-02-26T06:12:31;0.80;;;0.80;;
7707;SDS011;3896;48.758;8.888;2024-02-26T06:15:00;0.97;;;0.90;;
7707;SDS011;3896;48.758;8.888;2024-02-26T06:17:26;0.80;;;0.80;;
7707;SDS011;3896;48.758;8.888;2024-02-26T06:19:52;0.70;;;0.70;;
7707;SDS011;3896;48.758;8.888;2024-02-26T06:22:18;0.90;;;0.90;;
7707;SDS011;3896;48.758;8.888;2024-02-26T06:24:43;1.00;;;1.00;;
7707;SDS011;3896;48.758;8.888;2024-02-26T06:27:08;2.47;;;0.83;;
7707;SDS011;3896;48.758;8.888;2024-02-26T06:29:34;0.80;;;0.80;;
7707;SDS011;3896;48.758;8.888;2024-02-26T06:31:59;1.00;;;0.97;;
7707;SDS011;3896;48.758;8.888;2024-02-26T06:34:25;1.00;;;0.93;;
7707;SDS011;3896;48.758;8.888;2024-02-26T06:36:50;0.80;;;0.80;;
7707;SDS011;3896;48.758;8.888;2024-02-26T06:39:16;1.17;;;0.97;;
7707;SDS011;3896;48.758;8.888;2024-02-26T06:41:42;0.67;;;0.67;;
7707;SDS011;3896;48.758;8.888;2024-02-26T06:44:08;3.90;;;1.10;;
7707;SDS011;3896;48.758;8.888;2024-02-26T06:46:34;1.10;;;1.00;;
7707;SDS011;3896;48.758;8.888;2024-02-26T06:48:59;1.30;;;1.20;;
7707;SDS011;3896;48.758;8.888;2024-02-26T06:51:25;1.00;;;1.00;;
7707;SDS011;3896;48.758;8.888;2024-02-26T06:53:52;1.03;;;1.03;;
7707;SDS011;3896;48.758;8.888;2024-02-26T06:56:17;1.00;;;1.00;;
7707;SDS011;3896;48.758;8.888;2024-02-26T06:58:43;1.23;;;1.10;;
7707;SDS011;3896;48.758;8.888;2024-02-26T07:01:08;1.10;;;1.10;;
7707;SDS011;3896;48.758;8.888;2024-02-26T07:03:35;2.07;;;1.07;;
7707;SDS011;3896;48.758;8.888;2024-02-26T07:06:00;0.90;;;0.90;;
7707;SDS011;3896;48.758;8.888;2024-02-26T07:08:26;1.20;;;1.20;;
7707;SDS011;3896;48.758;8.888;2024-02-26T07:10:52;1.63;;;1.53;;
7707;SDS011;3896;48.758;8.888;2024-02-26T07:13:17;0.90;;;0.90;;
7707;SDS011;3896;48.758;8.888;2024-02-26T07:15:43;1.30;;;1.10;;
7707;SDS011;3896;48.758;8.888;2024-02-26T07:18:08;1.77;;;1.07;;
7707;SDS011;3896;48.758;8.888;2024-02-26T07:20:35;1.50;;;1.40;;
7707;SDS011;3896;48.758;8.888;2024-02-26T07:23:01;0.70;;;0.70;;
7707;SDS011;3896;48.758;8.888;2024-02-26T07:25:26;2.53;;;1.10;;
7707;SDS011;3896;48.758;8.888;2024-02-26T07:27:52;4.10;;;1.20;;
7707;SDS011;3896;48.758;8.888;2024-02-26T07:30:17;1.70;;;1.20;;
7707;SDS011;3896;48.758;8.888;2024-02-26T07:32:43;1.27;;;0.90;;
7707;SDS011;3896;48.758;8.888;2024-02-26T07:35:09;0.77;;;0.77;;
7707;SDS011;3896;48.758;8.888;2024-02-26T07:37:35;1.00;;;0.97;;
7707;SDS011;3896;48.758;8.888;2024-02-26T07:40:00;1.00;;;1.00;;
7707;SDS011;3896;48.758;8.888;2024-02-26T07:42:26;1.00;;;1.00;;
7707;SDS011;3896;48.758;8.888;2024-02-26T07:44:52;1.07;;;0.90;;
7707;SDS011;3896;48.758;8.888;2024-02-26T07:47:17;1.10;;;1.00;;
7707;SDS011;3896;48.758;8.888;2024-02-26T07:49:46;1.23;;;0.93;;
7707;SDS011;3896;48.758;8.888;2024-02-26T07:52:12;1.10;;;1.03;;
7707;SDS011;3896;48.758;8.888;2024-02-26T07:54:37;1.33;;;1.00;;
7707;SDS011;3896;48.758;8.888;2024-02-26T07:57:03;0.90;;;0.90;;
7707;SDS011;3896;48.758;8.888;2024-02-26T07:59:30;0.80;;;0.80;;
7707;SDS011;3896;48.758;8.888;2024-02-26T08:01:56;1.50;;;1.10;;
7707;SDS011;3896;48.758;8.888;2024-02-26T08:04:22;1.63;;;1.20;;
7707;SDS011;3896;48.758;8.888;2024-02-26T08:06:47;0.60;;;0.60;;
7707;SDS011;3896;48.758;8.888;2024-02-26T08:09:13;0.90;;;0.90;;
7707;SDS011;3896;48.758;8.888;2024-02-26T08:11:39;0.87;;;0.87;;
7707;SDS011;3896;48.758;8.888;2024-02-26T08:14:04;1.10;;;1.10;;
7707;SDS011;3896;48.758;8.888;2024-02-26T08:16:30;1.10;;;1.00;;
7707;SDS011;3896;48.758;8.888;2024-02-26T08:18:55;1.03;;;0.90;;
7707;SDS011;3896;48.758;8.888;2024-02-26T08:21:21;0.93;;;0.93;;
7707;SDS011;3896;48.758;8.888;2024-02-26T08:23:47;0.97;;;0.93;;
7707;SDS011;3896;48.758;8.888;2024-02-26T08:26:12;0.80;;;0.80;;
7707;SDS011;3896;48.758;8.888;2024-02-26T08:28:38;1.30;;;1.20;;
7707;SDS011;3896;48.758;8.888;2024-02-26T08:31:03;1.87;;;1.37;;
7707;SDS011;3896;48.758;8.888;2024-02-26T08:33:29;3.40;;;1.03;;
7707;SDS011;3896;48.758;8.888;2024-02-26T08:35:55;0.77;;;0.73;;
7707;SDS011;3896;48.758;8.888;2024-02-26T08:38:21;0.90;;;0.90;;
7707;SDS011;3896;48.758;8.888;2024-02-26T08:40:47;2.47;;;0.80;;
7707;SDS011;3896;48.758;8.888;2024-02-26T08:43:13;1.57;;;1.10;;
7707;SDS011;3896;48.758;8.888;2024-02-26T08:45:39;1.33;;;1.10;;
7707;SDS011;3896;48.758;8.888;2024-02-26T08:48:04;1.10;;;1.00;;
7707;SDS011;3896;48.758;8.888;2024-02-26T08:50:30;1.17;;;1.13;;
7707;SDS011;3896;48.758;8.888;2024-02-26T08:52:56;1.10;;;1.00;;
7707;SDS011;3896;48.758;8.888;2024-02-26T08:55:21;2.47;;;1.10;;
7707;SDS011;3896;48.758;8.888;2024-02-26T08:57:47;0.83;;;0.83;;
7707;SDS011;3896;48.758;8.888;2024-02-26T09:00:13;1.00;;;1.00;;
7707;SDS011;3896;48.758;8.888;2024-02-26T09:02:40;1.73;;;1.17;;
7707;SDS011;3896;48.758;8.888;2024-02-26T09:05:08;1.23;;;1.10;;
7707;SDS011;3896;48.758;8.888;2024-02-26T09:07:35;1.97;;;1.83;;
7707;SDS011;3896;48.758;8.888;2024-02-26T09:12:35;0.87;;;0.83;;
7707;SDS011;3896;48.758;8.888;2024-02-26T09:15:01;0.80;;;0.80;;
7707;SDS011;3896;48.758;8.888;2024-02-26T09:17:27;0.70;;;0.70;;
7707;SDS011;3896;48.758;8.888;2024-02-26T09:19:52;1.20;;;1.10;;
7707;SDS011;3896;48.758;8.888;2024-02-26T09:22:18;0.90;;;0.80;;
7707;SDS011;3896;48.758;8.888;2024-02-26T09:24:43;0.90;;;0.90;;
7707;SDS011;3896;48.758;8.888;2024-02-26T09:27:09;1.17;;;0.90;;
7707;SDS011;3896;48.758;8.888;2024-02-26T09:29:35;1.10;;;1.03;;
7707;SDS011;3896;48.758;8.888;2024-02-26T09:32:01;1.27;;;1.20;;
7707;SDS011;3896;48.758;8.888;2024-02-26T09:34:26;1.23;;;1.10;;
7707;SDS011;3896;48.758;8.888;2024-02-26T09:36:52;1.43;;;1.10;;
7707;SDS011;3896;48.758;8.888;2024-02-26T09:39:17;1.57;;;1.30;;
7707;SDS011;3896;48.758;8.888;2024-02-26T09:41:46;1.40;;;1.30;;
7707;SDS011;3896;48.758;8.888;2024-02-26T09:44:15;2.50;;;1.23;;
7707;SDS011;3896;48.758;8.888;2024-02-26T09:46:47;1.17;;;1.07;;
7707;SDS011;3896;48.758;8.888;2024-02-26T09:49:16;2.30;;;1.10;;
7707;SDS011;3896;48.758;8.888;2024-02-26T09:51:43;1.50;;;1.20;;
7707;SDS011;3896;48.758;8.888;2024-02-26T09:54:11;0.70;;;0.70;;
7707;SDS011;3896;48.758;8.888;2024-02-26T09:56:39;1.00;;;1.00;;
7707;SDS011;3896;48.758;8.888;2024-02-26T09:59:06;0.83;;;0.83;;
7707;SDS011;3896;48.758;8.888;2024-02-26T10:01:38;1.40;;;1.17;;
7707;SDS011;3896;48.758;8.888;2024-02-26T10:04:06;1.47;;;1.10;;
7707;SDS011;3896;48.758;8.888;2024-02-26T10:06:33;0.80;;;0.80;;
7707;SDS011;3896;48.758;8.888;2024-02-26T10:09:01;0.90;;;0.90;;
7707;SDS011;3896;48.758;8.888;2024-02-26T10:11:31;0.77;;;0.77;;
7707;SDS011;3896;48.758;8.888;2024-02-26T10:13:57;1.10;;;1.00;;
7707;SDS011;3896;48.758;8.888;2024-02-26T10:16:23;1.30;;;1.20;;
7707;SDS011;3896;48.758;8.888;2024-02-26T10:18:50;2.13;;;1.23;;
7707;SDS011;3896;48.758;8.888;2024-02-26T10:21:17;1.20;;;0.80;;
7707;SDS011;3896;48.758;8.888;2024-02-26T10:23:43;2.60;;;1.03;;
7707;SDS011;3896;48.758;8.888;2024-02-26T10:26:10;0.90;;;0.90;;
7707;SDS011;3896;48.758;8.888;2024-02-26T10:28:37;0.80;;;0.80;;
7707;SDS011;3896;48.758;8.888;2024-02-26T10:31:03;0.93;;;0.90;;
7707;SDS011;3896;48.758;8.888;2024-02-26T10:33:29;0.93;;;0.90;;
7707;SDS011;3896;48.758;8.888;2024-02-26T10:35:55;0.67;;;0.67;;
7707;SDS011;3896;48.758;8.888;2024-02-26T10:38:20;1.97;;;1.07;;
7707;SDS011;3896;48.758;8.888;2024-02-26T10:40:48;1.70;;;0.90;;
7707;SDS011;3896;48.758;8.888;2024-02-26T10:43:14;1.00;;;1.00;;
7707;SDS011;3896;48.758;8.888;2024-02-26T10:45:41;0.80;;;0.80;;
7707;SDS011;3896;48.758;8.888;2024-02-26T10:48:12;1.10;;;0.80;;
7707;SDS011;3896;48.758;8.888;2024-02-26T10:50:41;0.93;;;0.93;;
7707;SDS011;3896;48.758;8.888;2024-02-26T10:53:12;1.00;;;0.90;;
7707;SDS011;3896;48.758;8.888;2024-02-26T10:55:43;1.10;;;1.00;;
7707;SDS011;3896;48.758;8.888;2024-02-26T10:58:17;1.37;;;0.83;;
7707;SDS011;3896;48.758;8.888;2024-02-26T11:00:44;0.90;;;0.90;;
7707;SDS011;3896;48.758;8.888;2024-02-26T11:03:12;1.20;;;1.10;;
7707;SDS011;3896;48.758;8.888;2024-02-26T11:05:41;0.63;;;0.63;;
7707;SDS011;3896;48.758;8.888;2024-02-26T11:08:07;0.90;;;0.90;;
7707;SDS011;3896;48.758;8.888;2024-02-26T11:10:34;3.10;;;1.00;;
7707;SDS011;3896;48.758;8.888;2024-02-26T11:13:01;1.57;;;1.07;;
7707;SDS011;3896;48.758;8.888;2024-02-26T11:15:29;1.00;;;1.00;;
7707;SDS011;3896;48.758;8.888;2024-02-26T11:17:57;1.73;;;1.03;;
7707;SDS011;3896;48.758;8.888;2024-02-26T11:20:23;1.20;;;1.13;;
7707;SDS011;3896;48.758;8.888;2024-02-26T11:22:49;1.20;;;1.10;;
7707;SDS011;3896;48.758;8.888;2024-02-26T11:25:15;1.50;;;0.93;;
7707;SDS011;3896;48.758;8.888;2024-02-26T11:27:49;1.30;;;1.10;;
7707;SDS011;3896;48.758;8.888;2024-02-26T11:30:23;1.07;;;0.93;;
7707;SDS011;3896;48.758;8.888;2024-02-26T11:32:51;1.30;;;1.20;;
7707;SDS011;3896;48.758;8.888;2024-02-26T11:35:18;2.23;;;0.70;;
7707;SDS011;3896;48.758;8.888;2024-02-26T11:37:53;1.03;;;0.90;;
7707;SDS011;3896;48.758;8.888;2024-02-26T11:40:21;2.47;;;0.83;;
7707;SDS011;3896;48.758;8.888;2024-02-26T11:42:48;0.77;;;0.77;;
7707;SDS011;3896;48.758;8.888;2024-02-26T11:48:03;1.70;;;1.10;;
7707;SDS011;3896;48.758;8.888;2024-02-26T11:50:40;2.60;;;0.90;;
7707;SDS011;3896;48.758;8.888;2024-02-26T11:53:19;3.17;;;1.10;;
7707;SDS011;3896;48.758;8.888;2024-02-26T11:55:46;1.13;;;1.03;;
7707;SDS011;3896;48.758;8.888;2024-02-26T11:58:12;0.60;;;0.50;;
7707;SDS011;3896;48.758;8.888;2024-02-26T12:00:39;0.93;;;0.70;;
7707;SDS011;3896;48.758;8.888;2024-02-26T12:03:05;0.83;;;0.73;;
7707;SDS011;3896;48.758;8.888;2024-02-26T12:05:33;2.73;;;0.57;;
7707;SDS011;3896;48.758;8.888;2024-02-26T12:08:05;0.97;;;0.70;;
7707;SDS011;3896;48.758;8.888;2024-02-26T12:13:02;0.67;;;0.67;;
7707;SDS011;3896;48.758;8.888;2024-02-26T12:15:40;1.43;;;0.50;;
7707;SDS011;3896;48.758;8.888;2024-02-26T12:18:09;0.73;;;0.73;;
7707;SDS011;3896;48.758;8.888;2024-02-26T12:20:40;3.10;;;0.57;;
7707;SDS011;3896;48.758;8.888;2024-02-26T12:23:06;0.60;;;0.60;;
7707;SDS011;3896;48.758;8.888;2024-02-26T12:25:32;0.37;;;0.37;;
7707;SDS011;3896;48.758;8.888;2024-02-26T12:27:58;0.90;;;0.70;;
7707;SDS011;3896;48.758;8.888;2024-02-26T12:30:24;1.47;;;0.40;;
7707;SDS011;3896;48.758;8.888;2024-02-26T12:32:51;0.40;;;0.40;;
7707;SDS011;3896;48.758;8.888;2024-02-26T12:35:17;0.60;;;0.60;;
7707;SDS011;3896;48.758;8.888;2024-02-26T12:37:43;0.30;;;0.30;;
7707;SDS011;3896;48.758;8.888;2024-02-26T12:40:09;0.40;;;0.40;;
7707;SDS011;3896;48.758;8.888;2024-02-26T12:42:36;0.30;;;0.30;;
7707;SDS011;3896;48.758;8.888;2024-02-26T12:45:06;3.20;;;0.60;;
7707;SDS011;3896;48.758;8.888;2024-02-26T12:47:52;0.30;;;0.30;;
7707;SDS011;3896;48.758;8.888;2024-02-26T12:50:17;2.13;;;0.63;;
7707;SDS011;3896;48.758;8.888;2024-02-26T12:52:44;0.37;;;0.37;;
7707;SDS011;3896;48.758;8.888;2024-02-26T12:55:11;0.60;;;0.60;;
7707;SDS011;3896;48.758;8.888;2024-02-26T12:57:39;0.80;;;0.80;;
7707;SDS011;3896;48.758;8.888;2024-02-26T13:00:08;0.60;;;0.60;;
7707;SDS011;3896;48.758;8.888;2024-02-26T13:02:36;0.63;;;0.60;;
7707;SDS011;3896;48.758;8.888;2024-02-26T13:05:05;3.00;;;0.77;;
7707;SDS011;3896;48.758;8.888;2024-02-26T13:07:33;2.57;;;1.27;;
7707;SDS011;3896;48.758;8.888;2024-02-26T13:09:59;1.77;;;0.73;;
7707;SDS011;3896;48.758;8.888;2024-02-26T13:12:25;1.10;;;0.90;;
7707;SDS011;3896;48.758;8.888;2024-02-26T13:15:00;0.80;;;0.80;;
7707;SDS011;3896;48.758;8.888;2024-02-26T13:17:27;0.97;;;0.80;;
7707;SDS011;3896;48.758;8.888;2024-02-26T13:19:56;0.83;;;0.83;;
7707;SDS011;3896;48.758;8.888;2024-02-26T13:22:21;1.17;;;1.00;;
7707;SDS011;3896;48.758;8.888;2024-02-26T13:24:57;1.00;;;1.00;;
7707;SDS011;3896;48.758;8.888;2024-02-26T13:27:23;3.40;;;1.17;;
7707;SDS011;3896;48.758;8.888;2024-02-26T13:30:08;3.83;;;0.83;;
7707;SDS011;3896;48.758;8.888;2024-02-26T13:32:38;0.60;;;0.60;;
7707;SDS011;3896;48.758;8.888;2024-02-26T13:35:08;0.80;;;0.70;;
7707;SDS011;3896;48.758;8.888;2024-02-26T13:37:36;1.30;;;0.73;;
7707;SDS011;3896;48.758;8.888;2024-02-26T13:40:05;0.63;;;0.63;;
7707;SDS011;3896;48.758;8.888;2024-02-26T13:42:31;1.80;;;0.83;;
7707;SDS011;3896;48.758;8.888;2024-02-26T13:44:57;0.63;;;0.63;;
7707;SDS011;3896;48.758;8.888;2024-02-26T13:47:23;1.10;;;0.70;;
7707;SDS011;3896;48.758;8.888;2024-02-26T13:49:48;0.77;;;0.77;;
7707;SDS011;3896;48.758;8.888;2024-02-26T13:52:14;0.57;;;0.57;;
7707;SDS011;3896;48.758;8.888;2024-02-26T13:54:39;1.40;;;0.50;;
7707;SDS011;3896;48.758;8.888;2024-02-26T13:57:05;0.50;;;0.50;;
7707;SDS011;3896;48.758;8.888;2024-02-26T13:59:31;0.50;;;0.50;;
7707;SDS011;3896;48.758;8.888;2024-02-26T14:01:57;2.07;;;0.40;;
7707;SDS011;3896;48.758;8.888;2024-02-26T14:04:22;0.57;;;0.57;;
7707;SDS011;3896;48.758;8.888;2024-02-26T14:06:48;0.50;;;0.50;;
7707;SDS011;3896;48.758;8.888;2024-02-26T14:09:13;0.60;;;0.60;;
7707;SDS011;3896;48.758;8.888;2024-02-26T14:11:46;1.30;;;0.40;;
7707;SDS011;3896;48.758;8.888;2024-02-26T14:14:13;0.60;;;0.60;;
7707;SDS011;3896;48.758;8.888;2024-02-26T14:16:40;0.60;;;0.60;;
7707;SDS011;3896;48.758;8.888;2024-02-26T14:19:05;0.40;;;0.40;;
7707;SDS011;3896;48.758;8.888;2024-02-26T14:21:31;0.57;;;0.57;;
7707;SDS011;3896;48.758;8.888;2024-02-26T14:23:56;0.50;;;0.50;;
7707;SDS011;3896;48.758;8.888;2024-02-26T14:26:22;0.50;;;0.50;;
7707;SDS011;3896;48.758;8.888;2024-02-26T14:28:48;1.80;;;0.73;;
7707;SDS011;3896;48.758;8.888;2024-02-26T14:31:17;1.03;;;0.80;;
7707;SDS011;3896;48.758;8.888;2024-02-26T14:33:43;1.10;;;0.80;;
7707;SDS011;3896;48.758;8.888;2024-02-26T14:36:08;0.60;;;0.60;;
7707;SDS011;3896;48.758;8.888;2024-02-26T14:38:34;0.80;;;0.80;;
7707;SDS011;3896;48.758;8.888;2024-02-26T14:41:00;1.00;;;0.90;;
7707;SDS011;3896;48.758;8.888;2024-02-26T14:43:25;0.63;;;0.63;;
7707;SDS011;3896;48.758;8.888;2024-02-26T14:45:52;0.83;;;0.83;;
7707;SDS011;3896;48.758;8.888;2024-02-26T14:48:18;0.77;;;0.77;;
7707;SDS011;3896;48.758;8.888;2024-02-26T14:50:43;0.70;;;0.70;;
7707;SDS011;3896;48.758;8.888;2024-02-26T14:53:09;0.70;;;0.70;;
7707;SDS011;3896;48.758;8.888;2024-02-26T14:55:34;0.87;;;0.70;;
7707;SDS011;3896;48.758;8.888;2024-02-26T14:58:00;2.63;;;0.70;;
7707;SDS011;3896;48.758;8.888;2024-02-26T15:00:25;0.83;;;0.70;;
7707;SDS011;3896;48.758;8.888;2024-02-26T15:02:51;0.83;;;0.77;;
7707;SDS011;3896;48.758;8.888;2024-02-26T15:05:17;0.67;;;0.67;;
7707;SDS011;3896;48.758;8.888;2024-02-26T15:07:44;0.70;;;0.70;;
7707;SDS011;3896;48.758;8.888;2024-02-26T15:10:10;0.60;;;0.60;;
7707;SDS011;3896;48.758;8.888;2024-02-26T15:12:36;1.10;;;0.50;;
7707;SDS011;3896;48.758;8.888;2024-02-26T15:15:02;0.70;;;0.60;;
7707;SDS011;3896;48.758;8.888;2024-02-26T15:17:28;0.60;;;0.60;;
7707;SDS011;3896;48.758;8.888;2024-02-26T15:19:53;0.73;;;0.60;;
7707;SDS011;3896;48.758;8.888;2024-02-26T15:22:21;0.80;;;0.80;;
7707;SDS011;3896;48.758;8.888;2024-02-26T15:24:47;1.07;;;0.73;;
7707;SDS011;3896;48.758;8.888;2024-02-26T15:27:12;0.60;;;0.60;;
7707;SDS011;3896;48.758;8.888;2024-02-26T15:29:38;0.60;;;0.60;;
7707;SDS011;3896;48.758;8.888;2024-02-26T15:32:04;0.83;;;0.83;;
7707;SDS011;3896;48.758;8.888;2024-02-26T15:34:30;0.60;;;0.60;;